createdAt,value
2023-04-03T00:01:04.230Z,128.4648829431438
2023-04-03T00:07:25.156Z,124.8561872909699
2023-04-03T00:19:16.421Z,145.51839464882943
2023-04-03T00:25:36.702Z,129.09030100334448
2023-04-03T00:31:55.560Z,131.13377926421404
2023-04-03T00:38:15.731Z,149.22073578595317
2023-04-03T00:46:32.754Z,152.20066889632108
2023-04-03T00:52:54.279Z,137.90635451505017
2023-04-03T01:01:44.138Z,138.1571906354515
2023-04-03T01:08:04.911Z,132.1571906354515
2023-04-03T01:14:24.542Z,136.9866220735786
2023-04-03T01:20:42.970Z,137.34113712374582
2023-04-03T01:27:26.143Z,133.8160535117057
2023-04-03T01:33:45.825Z,139.10033444816054
2023-04-03T01:41:20.678Z,145.42140468227424
2023-04-03T01:47:39.931Z,146.08695652173913
2023-04-03T01:54:00.473Z,148.16722408026754
2023-04-03T02:00:20.302Z,140.1839464882943
2023-04-03T02:06:40.656Z,148.48494983277592
2023-04-03T02:16:09.470Z,152.49163879598663
2023-04-03T02:23:04.339Z,146.94314381270902
2023-04-03T02:29:25.222Z,146.93979933110367
2023-04-03T02:35:44.421Z,143.1505016722408
2023-04-03T02:42:05.374Z,142.62207357859532
2023-04-03T02:50:42.952Z,145.79598662207357
2023-04-03T02:57:03.770Z,150.86622073578596
2023-04-03T03:10:34.385Z,143.27090301003344
2023-04-03T03:17:07.595Z,129.2742474916388
2023-04-03T03:23:28.087Z,145.50836120401337
2023-04-03T03:34:44.302Z,136.29765886287626
2023-04-03T03:41:05.078Z,128.38127090301003
2023-04-03T03:52:21.596Z,127.07692307692308
2023-04-03T03:58:41.331Z,151.8896321070234
2023-04-03T04:11:30.075Z,129.09030100334448
2023-04-03T04:17:51.360Z,131.2541806020067
2023-04-03T04:24:12.050Z,145.1170568561873
2023-04-03T04:30:32.521Z,133.0334448160535
2023-04-03T04:36:52.851Z,138.50836120401337
2023-04-03T04:43:13.540Z,115.10033444816054
2023-04-03T04:49:33.911Z,123.71571906354515
2023-04-03T04:55:56.101Z,135.4180602006689
2023-04-03T05:02:17.870Z,147.83612040133778
2023-04-03T05:08:38.581Z,153.33444816053512
2023-04-03T05:15:00.779Z,137.9732441471572
2023-04-03T05:21:22.466Z,138.16387959866222
2023-04-03T05:27:45.201Z,143.77257525083613
2023-04-03T05:34:07.266Z,144.02006688963212
2023-04-03T05:40:58.707Z,156.06688963210703
2023-04-03T05:47:21.882Z,140.30769230769232
2023-04-03T05:57:59.405Z,145.77926421404683
2023-04-03T06:04:32.259Z,140.65217391304347
2023-04-03T06:10:58.610Z,138.80267558528428
2023-04-03T06:21:54.467Z,143.8494983277592
2023-04-03T06:31:36.145Z,135.63545150501673
2023-04-03T06:37:59.440Z,131.3846153846154
2023-04-03T06:44:20.763Z,130.90301003344482
2023-04-03T06:50:41.769Z,128.44481605351172
2023-04-03T06:57:02.673Z,127.89966555183946
2023-04-03T07:03:23.587Z,214.52173913043478
2023-04-03T07:09:45.225Z,175.00334448160535
2023-04-03T07:17:31.174Z,160.20066889632108
2023-04-03T07:23:52.550Z,116.09364548494983
2023-04-03T07:30:14.045Z,98.42140468227424
2023-04-03T07:36:35.215Z,98.29431438127091
2023-04-03T07:44:37.341Z,87.65551839464882
2023-04-03T07:50:59.007Z,91.55183946488295
2023-04-03T08:00:57.223Z,83.4648829431438
2023-04-03T08:07:18.530Z,83.26086956521739
2023-04-03T08:17:51.099Z,94.80602006688963
2023-04-03T08:24:13.131Z,76.91304347826087
2023-04-03T08:30:33.436Z,52.381270903010034
2023-04-03T08:36:53.121Z,90.02675585284281
2023-04-03T08:43:13.092Z,53.03010033444816
2023-04-03T08:49:32.447Z,53.163879598662206
2023-04-03T08:59:19.310Z,51.62207357859532
2023-04-03T09:05:38.586Z,47.448160535117054
2023-04-03T09:11:58.174Z,40.862876254180605
2023-04-03T09:23:45.358Z,49.69565217391305
2023-04-03T09:30:05.698Z,64.86622073578596
2023-04-03T09:36:25.122Z,48.04013377926422
2023-04-03T09:42:48.960Z,40.98996655518395
2023-04-03T09:55:00.649Z,33.7056856187291
2023-04-03T10:05:47.679Z,57.78260869565217
2023-04-03T10:18:24.354Z,50.62876254180602
2023-04-03T10:24:45.878Z,59.63879598662207
2023-04-03T10:31:05.952Z,46.381270903010034
2023-04-03T10:37:25.305Z,36.147157190635454
2023-04-03T10:43:46.206Z,40.81605351170568
2023-04-03T10:50:05.619Z,50.13377926421405
2023-04-03T10:56:25.175Z,43.5819397993311
2023-04-03T11:02:45.807Z,55.424749163879596
2023-04-03T11:09:05.592Z,41.25083612040134
2023-04-03T11:15:30.461Z,49.438127090301
2023-04-03T11:21:50.306Z,53.357859531772576
2023-04-03T11:29:13.972Z,54.81605351170568
2023-04-03T11:35:35.493Z,59.25083612040134
2023-04-03T11:42:24.683Z,61.80936454849498
2023-04-03T11:48:45.461Z,64.90635451505017
2023-04-03T11:55:05.265Z,76.67224080267559
2023-04-03T12:01:26.190Z,80.56521739130434
2023-04-03T12:07:46.299Z,71.4448160535117
2023-04-03T12:14:06.014Z,77.0
2023-04-03T12:26:47.614Z,116.08695652173913
2023-04-03T12:33:48.711Z,116.87959866220736
2023-04-03T12:40:08.411Z,112.36789297658864
2023-04-03T12:46:28.307Z,109.39799331103679
2023-04-03T12:58:38.794Z,112.40802675585284
2023-04-03T13:04:58.682Z,111.49498327759197
2023-04-03T13:11:19.772Z,100.5685618729097
2023-04-03T13:17:39.697Z,103.876254180602
2023-04-03T13:24:13.928Z,107.06354515050167
2023-04-03T13:30:34.963Z,97.32441471571906
2023-04-03T13:36:54.341Z,82.3076923076923
2023-04-03T13:43:13.829Z,91.41471571906355
2023-04-03T13:52:30.421Z,99.71571906354515
2023-04-03T13:58:51.736Z,85.46822742474916
2023-04-03T14:05:11.893Z,104.94983277591973
2023-04-03T14:17:24.347Z,95.23076923076923
2023-04-03T14:23:44.706Z,97.06020066889631
2023-04-03T14:30:04.015Z,97.99665551839465
2023-04-03T14:36:23.144Z,103.89966555183946
2023-04-03T14:42:42.812Z,97.54515050167224
2023-04-03T14:49:02.515Z,101.0200668896321
2023-04-03T14:55:21.701Z,98.33110367892976
2023-04-03T15:01:41.183Z,93.92307692307692
2023-04-03T15:08:01.917Z,87.65886287625418
2023-04-03T15:15:04.149Z,99.79264214046823
2023-04-03T15:21:23.502Z,99.21070234113712
2023-04-03T15:27:43.169Z,97.5685618729097
2023-04-03T15:34:02.442Z,114.19397993311037
2023-04-03T15:45:17.942Z,96.34448160535118
2023-04-03T15:56:40.883Z,132.09698996655518
2023-04-03T16:03:01.361Z,116.08026755852843
2023-04-03T16:09:20.658Z,117.7123745819398
2023-04-03T16:15:39.552Z,110.11371237458194
2023-04-03T16:21:58.374Z,117.93311036789298
2023-04-03T16:33:29.029Z,132.81270903010034
2023-04-03T16:40:38.387Z,135.29096989966555
2023-04-03T16:55:26.091Z,115.11371237458194
2023-04-03T17:01:45.798Z,124.87290969899665
2023-04-03T17:08:05.564Z,119.08026755852843
2023-04-03T17:17:52.400Z,133.97658862876253
2023-04-03T17:24:12.288Z,120.66220735785953
2023-04-03T17:34:55.053Z,145.752508361204
2023-04-03T17:41:15.589Z,125.19732441471572
2023-04-03T17:47:36.142Z,130.22408026755852
2023-04-03T17:54:59.509Z,152.44481605351172
2023-04-03T18:01:16.911Z,138.41471571906354
2023-04-03T18:07:34.104Z,166.2173913043478
2023-04-03T18:16:23.543Z,253.314381270903
2023-04-03T18:22:40.885Z,268.89632107023414
2023-04-03T18:33:47.455Z,239.247491638796
2023-04-03T18:40:05.031Z,207.0267558528428
2023-04-03T18:50:54.987Z,210.20735785953178
2023-04-03T18:57:12.660Z,212.69230769230768
2023-04-03T19:03:29.409Z,193.4715719063545
2023-04-03T19:15:27.656Z,199.8829431438127
2023-04-03T19:21:44.284Z,185.5953177257525
2023-04-03T19:28:01.661Z,279.39799331103677
2023-04-03T19:34:18.310Z,165.68896321070235
2023-04-03T19:40:36.134Z,188.03678929765886
2023-04-03T19:46:53.675Z,258.7826086956522
2023-04-03T19:53:12.500Z,193.16387959866222
2023-04-03T19:59:30.859Z,164.8561872909699
2023-04-03T20:05:48.494Z,160.12040133779263
2023-04-03T20:14:54.623Z,141.01672240802677
2023-04-03T20:23:54.219Z,149.48494983277592
2023-04-03T20:30:12.954Z,164.7859531772575
2023-04-03T20:36:29.688Z,151.9866220735786
2023-04-03T20:42:46.198Z,147.18729096989966
2023-04-03T20:49:03.515Z,128.5418060200669
2023-04-03T20:55:20.962Z,138.42809364548495
2023-04-03T21:01:38.166Z,163.2876254180602
2023-04-03T21:07:56.035Z,141.35451505016724
2023-04-03T21:14:14.082Z,171.87290969899666
2023-04-03T21:25:42.352Z,138.39464882943145
2023-04-03T21:32:02.106Z,153.2876254180602
2023-04-03T21:44:09.444Z,197.1705685618729
2023-04-03T21:50:28.073Z,170.56521739130434
2023-04-03T21:57:26.673Z,182.35117056856188
2023-04-03T22:03:47.678Z,178.87959866220737
2023-04-03T22:10:08.582Z,155.0702341137124
2023-04-03T22:17:51.779Z,144.9665551839465
2023-04-03T22:24:12.316Z,134.0267558528428
2023-04-03T22:30:31.761Z,128.19732441471572
2023-04-03T22:43:06.516Z,143.27090301003344
2023-04-03T22:49:27.048Z,152.77257525083613
2023-04-03T22:58:35.115Z,146.561872909699
2023-04-03T23:09:08.458Z,160.67558528428094
2023-04-03T23:15:28.356Z,163.02006688963212
2023-04-03T23:21:48.449Z,180.58528428093646
2023-04-03T23:28:09.360Z,195.76254180602007
2023-04-03T23:44:43.212Z,202.6086956521739
2023-04-03T23:56:04.091Z,190.57859531772576
